sensor_id;sensor_type;location;lat;lon;timestamp;pressure;altitude;pressure_sealevel;temperature;humidity
75538;BME280;64121;48.666;8.114;2023-04-01T00:01:33;98786.34;;;9.50;81.62
75538;BME280;64121;48.666;8.114;2023-04-01T00:03:59;98794.19;;;9.48;82.47
75538;BME280;64121;48.666;8.114;2023-04-01T00:06:24;98787.78;;;9.44;82.02
75538;BME280;64121;48.666;8.114;2023-04-01T00:08:50;98791.75;;;9.43;82.81
75538;BME280;64121;48.666;8.114;2023-04-01T00:11:16;98799.28;;;9.43;82.39
75538;BME280;64121;48.666;8.114;2023-04-01T00:13:41;98794.91;;;9.41;82.74
75538;BME280;64121;48.666;8.114;2023-04-01T00:16:09;98786.44;;;9.34;81.92
75538;BME280;64121;48.666;8.114;2023-04-01T00:18:34;98796.25;;;9.28;82.23
75538;BME280;64121;48.666;8.114;2023-04-01T00:21:00;98793.56;;;9.32;81.94
75538;BME280;64121;48.666;8.114;2023-04-01T00:23:25;98791.56;;;9.32;81.82
75538;BME280;64121;48.666;8.114;2023-04-01T00:25:50;98784.84;;;9.33;81.63
75538;BME280;64121;48.666;8.114;2023-04-01T00:28:16;98783.00;;;9.41;81.04
75538;BME280;64121;48.666;8.114;2023-04-01T00:30:42;98781.75;;;9.38;81.22
75538;BME280;64121;48.666;8.114;2023-04-01T00:33:08;98778.94;;;9.35;80.79
75538;BME280;64121;48.666;8.114;2023-04-01T00:35:34;98764.72;;;9.40;80.76
75538;BME280;64121;48.666;8.114;2023-04-01T00:37:59;98769.84;;;9.38;80.76
75538;BME280;64121;48.666;8.114;2023-04-01T00:40:27;98773.44;;;9.38;80.79
75538;BME280;64121;48.666;8.114;2023-04-01T00:42:53;98774.53;;;9.34;80.45
75538;BME280;64121;48.666;8.114;2023-04-01T00:45:27;98780.16;;;9.37;80.29
75538;BME280;64121;48.666;8.114;2023-04-01T00:47:53;98784.09;;;9.36;80.35
75538;BME280;64121;48.666;8.114;2023-04-01T00:50:21;98782.56;;;9.39;79.76
75538;BME280;64121;48.666;8.114;2023-04-01T00:52:47;98782.19;;;9.40;78.74
75538;BME280;64121;48.666;8.114;2023-04-01T00:55:14;98791.69;;;9.39;78.36
75538;BME280;64121;48.666;8.114;2023-04-01T00:57:43;98775.84;;;9.40;77.96
75538;BME280;64121;48.666;8.114;2023-04-01T01:00:12;98776.91;;;9.32;78.77
75538;BME280;64121;48.666;8.114;2023-04-01T01:02:38;98782.81;;;9.30;78.70
75538;BME280;64121;48.666;8.114;2023-04-01T01:05:04;98785.06;;;9.25;77.66
75538;BME280;64121;48.666;8.114;2023-04-01T01:07:37;98777.19;;;9.27;77.18
75538;BME280;64121;48.666;8.114;2023-04-01T01:10:10;98777.31;;;9.34;77.46
75538;BME280;64121;48.666;8.114;2023-04-01T01:12:40;98786.41;;;9.31;77.48
75538;BME280;64121;48.666;8.114;2023-04-01T01:15:11;98781.13;;;9.26;77.24
75538;BME280;64121;48.666;8.114;2023-04-01T01:17:48;98769.00;;;9.34;76.18
75538;BME280;64121;48.666;8.114;2023-04-01T01:20:29;98772.00;;;9.25;76.22
75538;BME280;64121;48.666;8.114;2023-04-01T01:23:28;98779.25;;;9.30;75.41
75538;BME280;64121;48.666;8.114;2023-04-01T01:26:13;98774.53;;;9.34;75.57
75538;BME280;64121;48.666;8.114;2023-04-01T01:28:51;98761.47;;;9.34;75.27
75538;BME280;64121;48.666;8.114;2023-04-01T01:31:23;98760.72;;;9.37;75.09
75538;BME280;64121;48.666;8.114;2023-04-01T01:34:01;98767.06;;;9.38;74.60
75538;BME280;64121;48.666;8.114;2023-04-01T01:36:32;98764.25;;;9.34;74.88
75538;BME280;64121;48.666;8.114;2023-04-01T01:38:58;98754.81;;;9.39;74.76
75538;BME280;64121;48.666;8.114;2023-04-01T01:41:25;98759.88;;;9.33;74.79
75538;BME280;64121;48.666;8.114;2023-04-01T01:43:51;98750.84;;;9.40;74.36
75538;BME280;64121;48.666;8.114;2023-04-01T01:46:21;98751.53;;;9.33;74.90
75538;BME280;64121;48.666;8.114;2023-04-01T01:48:48;98761.47;;;9.34;75.20
75538;BME280;64121;48.666;8.114;2023-04-01T01:51:15;98758.69;;;9.34;74.69
75538;BME280;64121;48.666;8.114;2023-04-01T01:53:43;98747.97;;;9.33;75.30
75538;BME280;64121;48.666;8.114;2023-04-01T01:56:10;98758.19;;;9.29;75.96
75538;BME280;64121;48.666;8.114;2023-04-01T01:58:37;98768.94;;;9.30;76.02
75538;BME280;64121;48.666;8.114;2023-04-01T02:01:06;98762.88;;;9.25;76.37
75538;BME280;64121;48.666;8.114;2023-04-01T02:03:35;98761.66;;;9.22;76.61
75538;BME280;64121;48.666;8.114;2023-04-01T02:06:04;98756.84;;;9.19;76.63
75538;BME280;64121;48.666;8.114;2023-04-01T02:08:35;98762.38;;;9.19;76.65
75538;BME280;64121;48.666;8.114;2023-04-01T02:11:05;98756.03;;;9.19;76.55
75538;BME280;64121;48.666;8.114;2023-04-01T02:13:34;98756.41;;;9.17;76.25
75538;BME280;64121;48.666;8.114;2023-04-01T02:16:08;98762.75;;;9.18;76.37
75538;BME280;64121;48.666;8.114;2023-04-01T02:18:36;98770.66;;;9.16;76.57
75538;BME280;64121;48.666;8.114;2023-04-01T02:21:04;98763.06;;;9.13;77.35
75538;BME280;64121;48.666;8.114;2023-04-01T02:23:31;98764.53;;;9.06;77.69
75538;BME280;64121;48.666;8.114;2023-04-01T02:25:58;98758.91;;;9.03;77.68
75538;BME280;64121;48.666;8.114;2023-04-01T02:28:26;98744.63;;;9.01;77.27
75538;BME280;64121;48.666;8.114;2023-04-01T02:30:53;98766.81;;;9.01;76.68
75538;BME280;64121;48.666;8.114;2023-04-01T02:33:20;98762.88;;;9.02;76.62
75538;BME280;64121;48.666;8.114;2023-04-01T02:35:46;98754.16;;;9.03;76.98
75538;BME280;64121;48.666;8.114;2023-04-01T02:38:11;98763.28;;;9.04;76.46
75538;BME280;64121;48.666;8.114;2023-04-01T02:40:46;98760.94;;;9.06;75.51
75538;BME280;64121;48.666;8.114;2023-04-01T02:43:11;98757.00;;;9.07;76.00
75538;BME280;64121;48.666;8.114;2023-04-01T02:45:38;98758.97;;;9.06;75.46
75538;BME280;64121;48.666;8.114;2023-04-01T02:48:04;98756.19;;;9.06;75.30
75538;BME280;64121;48.666;8.114;2023-04-01T02:50:30;98748.41;;;9.12;74.73
75538;BME280;64121;48.666;8.114;2023-04-01T02:52:55;98756.78;;;9.16;74.48
75538;BME280;64121;48.666;8.114;2023-04-01T02:55:20;98752.03;;;9.16;74.37
75538;BME280;64121;48.666;8.114;2023-04-01T02:57:46;98743.69;;;9.16;74.35
75538;BME280;64121;48.666;8.114;2023-04-01T03:00:12;98743.34;;;9.18;74.07
75538;BME280;64121;48.666;8.114;2023-04-01T03:02:39;98739.50;;;9.26;73.84
75538;BME280;64121;48.666;8.114;2023-04-01T03:05:05;98739.38;;;9.19;74.06
75538;BME280;64121;48.666;8.114;2023-04-01T03:07:31;98745.25;;;9.14;74.42
75538;BME280;64121;48.666;8.114;2023-04-01T03:09:56;98738.53;;;9.15;74.79
75538;BME280;64121;48.666;8.114;2023-04-01T03:12:21;98737.34;;;9.16;74.25
75538;BME280;64121;48.666;8.114;2023-04-01T03:14:47;98736.66;;;9.22;74.61
75538;BME280;64121;48.666;8.114;2023-04-01T03:17:12;98740.66;;;9.25;75.21
75538;BME280;64121;48.666;8.114;2023-04-01T03:19:39;98735.97;;;9.29;74.93
75538;BME280;64121;48.666;8.114;2023-04-01T03:22:04;98732.06;;;9.30;74.66
75538;BME280;64121;48.666;8.114;2023-04-01T03:24:30;98734.84;;;9.30;74.94
75538;BME280;64121;48.666;8.114;2023-04-01T03:26:55;98726.97;;;9.35;74.56
75538;BME280;64121;48.666;8.114;2023-04-01T03:29:20;98728.59;;;9.36;74.76
75538;BME280;64121;48.666;8.114;2023-04-01T03:31:46;98724.59;;;9.34;74.92
75538;BME280;64121;48.666;8.114;2023-04-01T03:34:11;98724.22;;;9.35;75.25
75538;BME280;64121;48.666;8.114;2023-04-01T03:36:38;98724.63;;;9.37;75.34
75538;BME280;64121;48.666;8.114;2023-04-01T03:39:03;98735.78;;;9.41;75.40
75538;BME280;64121;48.666;8.114;2023-04-01T03:41:29;98737.41;;;9.42;75.57
75538;BME280;64121;48.666;8.114;2023-04-01T03:43:55;98732.63;;;9.43;75.01
75538;BME280;64121;48.666;8.114;2023-04-01T03:46:20;98734.28;;;9.47;75.02
75538;BME280;64121;48.666;8.114;2023-04-01T03:48:45;98737.53;;;9.49;74.98
75538;BME280;64121;48.666;8.114;2023-04-01T03:51:11;98735.47;;;9.46;75.33
75538;BME280;64121;48.666;8.114;2023-04-01T03:53:38;98733.56;;;9.50;74.46
75538;BME280;64121;48.666;8.114;2023-04-01T03:56:04;98739.94;;;9.51;75.14
75538;BME280;64121;48.666;8.114;2023-04-01T03:58:29;98728.44;;;9.52;74.80
75538;BME280;64121;48.666;8.114;2023-04-01T04:00:55;98737.97;;;9.51;75.20
75538;BME280;64121;48.666;8.114;2023-04-01T04:03:20;98734.44;;;9.54;74.74
75538;BME280;64121;48.666;8.114;2023-04-01T04:05:47;98738.84;;;9.59;74.01
75538;BME280;64121;48.666;8.114;2023-04-01T04:08:12;98732.06;;;9.56;73.99
75538;BME280;64121;48.666;8.114;2023-04-01T04:10:39;98726.91;;;9.55;74.43
75538;BME280;64121;48.666;8.114;2023-04-01T04:13:04;98725.34;;;9.57;74.85
75538;BME280;64121;48.666;8.114;2023-04-01T04:15:30;98719.00;;;9.57;74.20
75538;BME280;64121;48.666;8.114;2023-04-01T04:17:55;98723.38;;;9.58;73.67
75538;BME280;64121;48.666;8.114;2023-04-01T04:20:20;98723.41;;;9.61;73.54
75538;BME280;64121;48.666;8.114;2023-04-01T04:22:46;98719.78;;;9.57;73.39
75538;BME280;64121;48.666;8.114;2023-04-01T04:25:11;98722.19;;;9.59;72.66
75538;BME280;64121;48.666;8.114;2023-04-01T04:27:38;98726.16;;;9.58;72.91
75538;BME280;64121;48.666;8.114;2023-04-01T04:30:05;98716.16;;;9.53;73.37
75538;BME280;64121;48.666;8.114;2023-04-01T04:32:31;98720.88;;;9.49;73.41
75538;BME280;64121;48.666;8.114;2023-04-01T04:34:57;98727.31;;;9.57;72.11
75538;BME280;64121;48.666;8.114;2023-04-01T04:37:22;98713.81;;;9.55;72.05
75538;BME280;64121;48.666;8.114;2023-04-01T04:39:48;98724.44;;;9.50;72.80
75538;BME280;64121;48.666;8.114;2023-04-01T04:42:13;98722.09;;;9.52;71.50
75538;BME280;64121;48.666;8.114;2023-04-01T04:44:40;98722.47;;;9.50;71.72
75538;BME280;64121;48.666;8.114;2023-04-01T04:47:05;98724.06;;;9.51;70.98
75538;BME280;64121;48.666;8.114;2023-04-01T04:49:30;98720.38;;;9.44;70.78
75538;BME280;64121;48.666;8.114;2023-04-01T04:51:56;98703.28;;;9.41;71.12
75538;BME280;64121;48.666;8.114;2023-04-01T04:54:21;98711.19;;;9.39;70.66
75538;BME280;64121;48.666;8.114;2023-04-01T04:56:47;98704.06;;;9.42;70.28
75538;BME280;64121;48.666;8.114;2023-04-01T04:59:12;98712.41;;;9.42;71.17
75538;BME280;64121;48.666;8.114;2023-04-01T05:01:39;98703.47;;;9.52;70.22
75538;BME280;64121;48.666;8.114;2023-04-01T05:04:04;98694.63;;;9.47;70.32
75538;BME280;64121;48.666;8.114;2023-04-01T05:06:30;98694.25;;;9.48;70.21
75538;BME280;64121;48.666;8.114;2023-04-01T05:08:55;98687.97;;;9.51;70.88
75538;BME280;64121;48.666;8.114;2023-04-01T05:11:21;98686.28;;;9.47;70.46
75538;BME280;64121;48.666;8.114;2023-04-01T05:13:46;98681.63;;;9.51;70.70
75538;BME280;64121;48.666;8.114;2023-04-01T05:16:14;98681.63;;;9.51;71.48
75538;BME280;64121;48.666;8.114;2023-04-01T05:18:41;98681.25;;;9.52;71.35
75538;BME280;64121;48.666;8.114;2023-04-01T05:21:07;98679.94;;;9.46;71.67
75538;BME280;64121;48.666;8.114;2023-04-01T05:23:32;98679.53;;;9.44;71.44
75538;BME280;64121;48.666;8.114;2023-04-01T05:25:58;98669.59;;;9.43;71.76
75538;BME280;64121;48.666;8.114;2023-04-01T05:28:23;98672.78;;;9.45;72.27
75538;BME280;64121;48.666;8.114;2023-04-01T05:30:49;98686.19;;;9.39;71.97
75538;BME280;64121;48.666;8.114;2023-04-01T05:33:14;98696.13;;;9.40;72.87
75538;BME280;64121;48.666;8.114;2023-04-01T05:35:41;98692.13;;;9.38;74.05
75538;BME280;64121;48.666;8.114;2023-04-01T05:38:10;98686.47;;;9.31;74.22
75538;BME280;64121;48.666;8.114;2023-04-01T05:40:35;98695.13;;;9.29;74.52
75538;BME280;64121;48.666;8.114;2023-04-01T05:43:01;98692.97;;;9.16;76.46
75538;BME280;64121;48.666;8.114;2023-04-01T05:45:27;98687.78;;;9.14;77.50
75538;BME280;64121;48.666;8.114;2023-04-01T05:47:53;98685.59;;;9.04;78.38
75538;BME280;64121;48.666;8.114;2023-04-01T05:50:18;98683.09;;;8.95;79.32
75538;BME280;64121;48.666;8.114;2023-04-01T05:52:46;98686.66;;;8.96;80.04
75538;BME280;64121;48.666;8.114;2023-04-01T05:55:12;98686.84;;;8.84;81.06
75538;BME280;64121;48.666;8.114;2023-04-01T05:57:37;98691.16;;;8.81;80.90
75538;BME280;64121;48.666;8.114;2023-04-01T06:00:03;98687.00;;;8.71;81.70
75538;BME280;64121;48.666;8.114;2023-04-01T06:02:29;98683.88;;;8.73;81.59
75538;BME280;64121;48.666;8.114;2023-04-01T06:05:02;98684.22;;;8.71;81.39
75538;BME280;64121;48.666;8.114;2023-04-01T06:07:28;98685.03;;;8.72;81.88
75538;BME280;64121;48.666;8.114;2023-04-01T06:09:55;98686.34;;;8.78;80.91
75538;BME280;64121;48.666;8.114;2023-04-01T06:12:32;98679.22;;;8.77;81.57
75538;BME280;64121;48.666;8.114;2023-04-01T06:15:13;98688.75;;;8.79;81.57
75538;BME280;64121;48.666;8.114;2023-04-01T06:17:56;98676.50;;;8.80;81.48
75538;BME280;64121;48.666;8.114;2023-04-01T06:20:28;98692.88;;;8.89;80.45
75538;BME280;64121;48.666;8.114;2023-04-01T06:23:10;98685.94;;;8.99;80.90
75538;BME280;64121;48.666;8.114;2023-04-01T06:26:00;98686.16;;;8.90;80.47
75538;BME280;64121;48.666;8.114;2023-04-01T06:28:59;98695.22;;;8.87;80.56
75538;BME280;64121;48.666;8.114;2023-04-01T06:31:46;98688.56;;;8.92;80.92
75538;BME280;64121;48.666;8.114;2023-04-01T06:34:24;98699.66;;;8.92;81.63
75538;BME280;64121;48.666;8.114;2023-04-01T06:37:10;98701.19;;;8.89;82.44
75538;BME280;64121;48.666;8.114;2023-04-01T06:39:49;98702.09;;;8.93;82.39
75538;BME280;64121;48.666;8.114;2023-04-01T06:42:39;98702.44;;;8.92;82.69
75538;BME280;64121;48.666;8.114;2023-04-01T06:45:28;98701.63;;;8.91;83.58
75538;BME280;64121;48.666;8.114;2023-04-01T06:48:08;98711.44;;;8.85;83.42
75538;BME280;64121;48.666;8.114;2023-04-01T06:50:42;98712.59;;;8.84;82.89
75538;BME280;64121;48.666;8.114;2023-04-01T06:53:12;98709.88;;;8.88;83.79
75538;BME280;64121;48.666;8.114;2023-04-01T06:55:43;98703.84;;;8.82;83.53
75538;BME280;64121;48.666;8.114;2023-04-01T06:58:18;98719.69;;;8.82;83.77
75538;BME280;64121;48.666;8.114;2023-04-01T07:00:46;98712.28;;;8.89;84.29
75538;BME280;64121;48.666;8.114;2023-04-01T07:03:20;98709.09;;;8.87;83.54
75538;BME280;64121;48.666;8.114;2023-04-01T07:05:46;98711.50;;;8.89;84.40
75538;BME280;64121;48.666;8.114;2023-04-01T07:08:16;98710.63;;;8.85;84.42
75538;BME280;64121;48.666;8.114;2023-04-01T07:10:47;98713.03;;;8.86;84.83
75538;BME280;64121;48.666;8.114;2023-04-01T07:13:19;98716.97;;;8.85;85.33
75538;BME280;64121;48.666;8.114;2023-04-01T07:15:58;98719.69;;;8.82;84.57
75538;BME280;64121;48.666;8.114;2023-04-01T07:18:30;98719.25;;;8.79;86.49
75538;BME280;64121;48.666;8.114;2023-04-01T07:20:57;98717.66;;;8.78;86.22
75538;BME280;64121;48.666;8.114;2023-04-01T07:23:31;98719.19;;;8.76;86.24
75538;BME280;64121;48.666;8.114;2023-04-01T07:25:59;98730.00;;;8.81;86.64
75538;BME280;64121;48.666;8.114;2023-04-01T07:28:29;98723.47;;;8.93;86.62
75538;BME280;64121;48.666;8.114;2023-04-01T07:31:03;98719.59;;;8.97;86.03
75538;BME280;64121;48.666;8.114;2023-04-01T07:33:35;98722.31;;;8.94;86.38
75538;BME280;64121;48.666;8.114;2023-04-01T07:36:06;98729.38;;;8.91;86.89
75538;BME280;64121;48.666;8.114;2023-04-01T07:38:40;98729.47;;;8.95;86.63
75538;BME280;64121;48.666;8.114;2023-04-01T07:41:15;98744.34;;;8.87;87.46
75538;BME280;64121;48.666;8.114;2023-04-01T07:44:00;98746.81;;;8.92;87.38
75538;BME280;64121;48.666;8.114;2023-04-01T07:46:47;98752.88;;;8.97;87.48
75538;BME280;64121;48.666;8.114;2023-04-01T07:49:17;98760.78;;;8.95;87.56
75538;BME280;64121;48.666;8.114;2023-04-01T07:51:52;98762.38;;;8.96;87.58
75538;BME280;64121;48.666;8.114;2023-04-01T07:54:26;98762.31;;;8.93;87.82
75538;BME280;64121;48.666;8.114;2023-04-01T07:56:57;98759.00;;;8.87;87.98
75538;BME280;64121;48.666;8.114;2023-04-01T07:59:29;98769.13;;;8.76;88.96
75538;BME280;64121;48.666;8.114;2023-04-01T08:02:06;98765.97;;;8.77;89.47
75538;BME280;64121;48.666;8.114;2023-04-01T08:04:49;98769.13;;;8.76;89.02
75538;BME280;64121;48.666;8.114;2023-04-01T08:07:20;98764.50;;;8.84;89.96
75538;BME280;64121;48.666;8.114;2023-04-01T08:09:53;98770.41;;;8.82;89.60
75538;BME280;64121;48.666;8.114;2023-04-01T08:12:31;98772.81;;;8.84;89.71
75538;BME280;64121;48.666;8.114;2023-04-01T08:15:12;98786.75;;;8.87;89.21
75538;BME280;64121;48.666;8.114;2023-04-01T08:17:45;98784.78;;;8.88;89.49
75538;BME280;64121;48.666;8.114;2023-04-01T08:20:23;98787.56;;;8.88;89.92
75538;BME280;64121;48.666;8.114;2023-04-01T08:22:53;98786.75;;;8.87;90.39
75538;BME280;64121;48.666;8.114;2023-04-01T08:25:25;98789.91;;;8.86;90.58
75538;BME280;64121;48.666;8.114;2023-04-01T08:27:53;98793.84;;;8.85;90.78
75538;BME280;64121;48.666;8.114;2023-04-01T08:30:26;98790.75;;;8.90;90.27
75538;BME280;64121;48.666;8.114;2023-04-01T08:32:58;98792.75;;;8.89;90.93
75538;BME280;64121;48.666;8.114;2023-04-01T08:35:28;98798.81;;;8.95;90.51
75538;BME280;64121;48.666;8.114;2023-04-01T08:37:57;98791.94;;;8.89;90.72
75538;BME280;64121;48.666;8.114;2023-04-01T08:40:56;98799.25;;;8.97;90.97
75538;BME280;64121;48.666;8.114;2023-04-01T08:43:35;98792.16;;;8.99;90.49
75538;BME280;64121;48.666;8.114;2023-04-01T08:46:19;98785.88;;;9.02;90.08
75538;BME280;64121;48.666;8.114;2023-04-01T08:49:04;98801.03;;;9.08;90.51
75538;BME280;64121;48.666;8.114;2023-04-01T08:51:52;98802.44;;;8.99;90.68
75538;BME280;64121;48.666;8.114;2023-04-01T08:54:42;98785.75;;;8.95;90.98
75538;BME280;64121;48.666;8.114;2023-04-01T08:57:13;98802.66;;;8.90;91.01
75538;BME280;64121;48.666;8.114;2023-04-01T08:59:53;98803.47;;;8.91;90.45
75538;BME280;64121;48.666;8.114;2023-04-01T09:05:55;98807.03;;;8.91;90.90
75538;BME280;64121;48.666;8.114;2023-04-01T09:08:34;98808.44;;;8.82;90.71
75538;BME280;64121;48.666;8.114;2023-04-01T09:11:09;98813.56;;;8.79;90.92
75538;BME280;64121;48.666;8.114;2023-04-01T09:17:01;98814.78;;;8.82;91.12
75538;BME280;64121;48.666;8.114;2023-04-01T09:19:46;98831.00;;;8.80;91.11
75538;BME280;64121;48.666;8.114;2023-04-01T09:22:28;98825.47;;;8.80;91.53
75538;BME280;64121;48.666;8.114;2023-04-01T09:25:23;98823.13;;;8.82;91.04
75538;BME280;64121;48.666;8.114;2023-04-01T09:27:56;98827.19;;;8.88;91.55
75538;BME280;64121;48.666;8.114;2023-04-01T09:30:33;98833.03;;;8.83;90.74
75538;BME280;64121;48.666;8.114;2023-04-01T09:36:09;98836.16;;;9.01;91.22
75538;BME280;64121;48.666;8.114;2023-04-01T09:38:47;98835.00;;;9.02;91.01
75538;BME280;64121;48.666;8.114;2023-04-01T09:41:24;98838.28;;;9.07;91.11
75538;BME280;64121;48.666;8.114;2023-04-01T09:44:00;98842.59;;;9.05;91.81
75538;BME280;64121;48.666;8.114;2023-04-01T09:46:35;98841.34;;;9.02;91.53
75538;BME280;64121;48.666;8.114;2023-04-01T09:49:30;98852.56;;;9.09;91.53
75538;BME280;64121;48.666;8.114;2023-04-01T09:52:09;98842.59;;;9.05;91.76
75538;BME280;64121;48.666;8.114;2023-04-01T09:57:44;98839.28;;;9.19;91.55
75538;BME280;64121;48.666;8.114;2023-04-01T10:00:31;98844.41;;;9.17;90.95
75538;BME280;64121;48.666;8.114;2023-04-01T10:03:36;98843.72;;;9.23;91.66
75538;BME280;64121;48.666;8.114;2023-04-01T10:06:33;98841.69;;;9.20;91.51
75538;BME280;64121;48.666;8.114;2023-04-01T10:15:30;98835.66;;;9.15;91.83
75538;BME280;64121;48.666;8.114;2023-04-01T10:18:21;98846.81;;;9.18;92.04
75538;BME280;64121;48.666;8.114;2023-04-01T10:21:02;98845.28;;;9.21;91.61
75538;BME280;64121;48.666;8.114;2023-04-01T10:24:14;98848.78;;;9.18;91.80
75538;BME280;64121;48.666;8.114;2023-04-01T10:27:09;98838.97;;;9.24;91.69
75538;BME280;64121;48.666;8.114;2023-04-01T10:30:02;98843.78;;;9.27;91.67
75538;BME280;64121;48.666;8.114;2023-04-01T10:38:48;98858.69;;;9.38;91.56
75538;BME280;64121;48.666;8.114;2023-04-01T10:41:34;98855.22;;;9.45;91.66
75538;BME280;64121;48.666;8.114;2023-04-01T10:44:37;98867.88;;;9.42;91.26
75538;BME280;64121;48.666;8.114;2023-04-01T10:47:30;98865.97;;;9.46;91.58
75538;BME280;64121;48.666;8.114;2023-04-01T10:50:20;98861.59;;;9.45;91.38
75538;BME280;64121;48.666;8.114;2023-04-01T10:53:24;98865.38;;;9.56;91.31
75538;BME280;64121;48.666;8.114;2023-04-01T10:56:27;98864.69;;;9.63;90.52
75538;BME280;64121;48.666;8.114;2023-04-01T10:59:12;98858.63;;;9.57;91.00
75538;BME280;64121;48.666;8.114;2023-04-01T11:02:17;98869.69;;;9.54;90.05
75538;BME280;64121;48.666;8.114;2023-04-01T11:05:26;98863.41;;;9.57;90.57
75538;BME280;64121;48.666;8.114;2023-04-01T11:08:29;98858.47;;;9.69;90.49
75538;BME280;64121;48.666;8.114;2023-04-01T11:11:47;98867.91;;;9.88;90.23
75538;BME280;64121;48.666;8.114;2023-04-01T11:14:35;98875.94;;;9.93;91.28
75538;BME280;64121;48.666;8.114;2023-04-01T11:17:43;98870.59;;;9.84;91.08
75538;BME280;64121;48.666;8.114;2023-04-01T11:23:18;98877.03;;;9.88;90.44
75538;BME280;64121;48.666;8.114;2023-04-01T11:26:00;98874.97;;;9.85;90.87
75538;BME280;64121;48.666;8.114;2023-04-01T11:31:44;98868.78;;;9.69;91.14
75538;BME280;64121;48.666;8.114;2023-04-01T11:37:37;98872.72;;;9.68;88.53
75538;BME280;64121;48.666;8.114;2023-04-01T11:40:17;98876.31;;;9.68;88.28
75538;BME280;64121;48.666;8.114;2023-04-01T11:42:49;98883.84;;;9.68;87.82
75538;BME280;64121;48.666;8.114;2023-04-01T11:45:24;98877.81;;;9.66;86.84
75538;BME280;64121;48.666;8.114;2023-04-01T11:48:02;98880.44;;;9.55;86.83
75538;BME280;64121;48.666;8.114;2023-04-01T11:50:45;98887.66;;;9.60;87.67
75538;BME280;64121;48.666;8.114;2023-04-01T11:53:26;98881.44;;;9.47;86.82
75538;BME280;64121;48.666;8.114;2023-04-01T11:56:01;98883.88;;;9.49;85.75
75538;BME280;64121;48.666;8.114;2023-04-01T11:58:43;98886.72;;;9.52;87.02
75538;BME280;64121;48.666;8.114;2023-04-01T12:01:25;98888.19;;;9.46;87.55
75538;BME280;64121;48.666;8.114;2023-04-01T12:04:19;98894.25;;;9.52;87.94
75538;BME280;64121;48.666;8.114;2023-04-01T12:06:52;98894.53;;;9.47;88.53
75538;BME280;64121;48.666;8.114;2023-04-01T12:09:27;98899.66;;;9.45;90.21
75538;BME280;64121;48.666;8.114;2023-04-01T12:12:09;98895.69;;;9.46;90.63
75538;BME280;64121;48.666;8.114;2023-04-01T12:14:41;98898.84;;;9.44;91.15
75538;BME280;64121;48.666;8.114;2023-04-01T12:17:15;98895.84;;;9.53;90.38
75538;BME280;64121;48.666;8.114;2023-04-01T12:19:48;98898.31;;;9.58;90.76
75538;BME280;64121;48.666;8.114;2023-04-01T12:22:39;98902.28;;;9.57;89.73
75538;BME280;64121;48.666;8.114;2023-04-01T12:25:20;98905.91;;;9.61;89.87
75538;BME280;64121;48.666;8.114;2023-04-01T12:27:53;98906.22;;;9.56;88.91
75538;BME280;64121;48.666;8.114;2023-04-01T12:30:42;98901.41;;;9.53;88.46
75538;BME280;64121;48.666;8.114;2023-04-01T12:33:23;98907.81;;;9.57;87.79
75538;BME280;64121;48.666;8.114;2023-04-01T12:35:57;98914.44;;;9.49;89.31
75538;BME280;64121;48.666;8.114;2023-04-01T12:38:31;98902.59;;;9.52;90.36
75538;BME280;64121;48.666;8.114;2023-04-01T12:41:08;98922.81;;;9.52;91.62
75538;BME280;64121;48.666;8.114;2023-04-01T12:46:51;98936.09;;;9.62;92.63
75538;BME280;64121;48.666;8.114;2023-04-01T12:49:33;98940.41;;;9.60;93.15
75538;BME280;64121;48.666;8.114;2023-04-01T12:52:10;98939.66;;;9.63;92.95
75538;BME280;64121;48.666;8.114;2023-04-01T13:00:45;98937.09;;;9.74;91.52
75538;BME280;64121;48.666;8.114;2023-04-01T13:03:27;98938.59;;;9.67;90.95
75538;BME280;64121;48.666;8.114;2023-04-01T13:06:16;98933.03;;;9.67;92.07
75538;BME280;64121;48.666;8.114;2023-04-01T13:08:44;98941.69;;;9.66;91.82
75538;BME280;64121;48.666;8.114;2023-04-01T13:11:18;98935.94;;;9.75;92.33
75538;BME280;64121;48.666;8.114;2023-04-01T13:14:04;98938.72;;;9.75;93.01
75538;BME280;64121;48.666;8.114;2023-04-01T13:16:38;98938.06;;;9.62;93.77
75538;BME280;64121;48.666;8.114;2023-04-01T13:19:08;98927.47;;;9.67;93.21
75538;BME280;64121;48.666;8.114;2023-04-01T13:21:44;98923.59;;;9.72;92.98
75538;BME280;64121;48.666;8.114;2023-04-01T13:24:24;98927.78;;;9.85;93.97
75538;BME280;64121;48.666;8.114;2023-04-01T13:26:57;98927.13;;;9.92;92.87
75538;BME280;64121;48.666;8.114;2023-04-01T13:29:31;98924.38;;;9.95;92.27
75538;BME280;64121;48.666;8.114;2023-04-01T13:32:10;98923.31;;;10.03;91.62
75538;BME280;64121;48.666;8.114;2023-04-01T13:34:51;98928.97;;;10.07;91.50
75538;BME280;64121;48.666;8.114;2023-04-01T13:37:30;98927.78;;;10.08;90.79
75538;BME280;64121;48.666;8.114;2023-04-01T13:40:12;98933.63;;;10.03;91.27
75538;BME280;64121;48.666;8.114;2023-04-01T13:42:45;98925.25;;;9.99;90.76
75538;BME280;64121;48.666;8.114;2023-04-01T13:45:17;98929.16;;;9.95;91.80
75538;BME280;64121;48.666;8.114;2023-04-01T13:48:27;98925.63;;;9.98;91.98
75538;BME280;64121;48.666;8.114;2023-04-01T13:51:05;98932.03;;;10.02;91.81
75538;BME280;64121;48.666;8.114;2023-04-01T13:54:05;98935.19;;;10.00;91.85
75538;BME280;64121;48.666;8.114;2023-04-01T13:56:39;98932.66;;;9.92;91.50
75538;BME280;64121;48.666;8.114;2023-04-01T13:59:27;98937.47;;;9.95;91.25
75538;BME280;64121;48.666;8.114;2023-04-01T14:02:07;98931.06;;;9.91;90.81
75538;BME280;64121;48.666;8.114;2023-04-01T14:04:49;98930.88;;;9.80;90.59
75538;BME280;64121;48.666;8.114;2023-04-01T14:07:36;98934.06;;;9.82;91.02
75538;BME280;64121;48.666;8.114;2023-04-01T14:10:19;98935.63;;;9.80;90.66
75538;BME280;64121;48.666;8.114;2023-04-01T14:12:55;98931.59;;;9.77;90.86
75538;BME280;64121;48.666;8.114;2023-04-01T14:15:41;98935.13;;;9.74;90.60
75538;BME280;64121;48.666;8.114;2023-04-01T14:18:32;98937.97;;;9.78;90.83
75538;BME280;64121;48.666;8.114;2023-04-01T14:21:10;98938.34;;;9.76;90.32
75538;BME280;64121;48.666;8.114;2023-04-01T14:23:49;98939.13;;;9.77;90.04
75538;BME280;64121;48.666;8.114;2023-04-01T14:26:26;98941.13;;;9.76;89.69
75538;BME280;64121;48.666;8.114;2023-04-01T14:29:02;98948.34;;;9.81;90.06
75538;BME280;64121;48.666;8.114;2023-04-01T14:31:43;98943.09;;;9.76;90.12